sensor_id;sensor_type;location;lat;lon;timestamp;temperature;humidity
1956;DHT22;978;48.314;11.562;2023-08-08T00:02:06;23.90;74.40
1956;DHT22;978;48.314;11.562;2023-08-08T00:04:33;23.90;73.80
1956;DHT22;978;48.314;11.562;2023-08-08T00:07:00;23.90;73.90
1956;DHT22;978;48.314;11.562;2023-08-08T00:09:27;24.10;74.00
1956;DHT22;978;48.314;11.562;2023-08-08T00:11:54;23.80;73.90
1956;DHT22;978;48.314;11.562;2023-08-08T00:14:22;23.90;74.00
1956;DHT22;978;48.314;11.562;2023-08-08T00:16:49;23.90;74.00
1956;DHT22;978;48.314;11.562;2023-08-08T00:19:17;23.80;73.80
1956;DHT22;978;48.314;11.562;2023-08-08T00:21:44;23.90;73.90
1956;DHT22;978;48.314;11.562;2023-08-08T00:24:10;23.80;73.90
1956;DHT22;978;48.314;11.562;2023-08-08T00:26:37;23.80;74.00
1956;DHT22;978;48.314;11.562;2023-08-08T00:29:04;23.80;74.00
1956;DHT22;978;48.314;11.562;2023-08-08T00:31:31;23.90;74.10
1956;DHT22;978;48.314;11.562;2023-08-08T00:33:59;23.90;74.10
1956;DHT22;978;48.314;11.562;2023-08-08T00:36:27;23.90;74.20
1956;DHT22;978;48.314;11.562;2023-08-08T00:38:54;23.90;74.20
1956;DHT22;978;48.314;11.562;2023-08-08T00:41:21;23.90;74.20
1956;DHT22;978;48.314;11.562;2023-08-08T00:43:48;23.80;74.10
1956;DHT22;978;48.314;11.562;2023-08-08T00:46:17;23.90;74.10
1956;DHT22;978;48.314;11.562;2023-08-08T00:48:47;23.90;74.10
1956;DHT22;978;48.314;11.562;2023-08-08T00:51:14;23.90;74.20
1956;DHT22;978;48.314;11.562;2023-08-08T00:53:44;23.80;74.20
1956;DHT22;978;48.314;11.562;2023-08-08T00:56:12;23.80;74.20
1956;DHT22;978;48.314;11.562;2023-08-08T00:58:39;23.90;74.30
1956;DHT22;978;48.314;11.562;2023-08-08T01:01:06;23.90;74.30
1956;DHT22;978;48.314;11.562;2023-08-08T01:03:33;23.90;74.40
1956;DHT22;978;48.314;11.562;2023-08-08T01:06:08;23.90;74.40
1956;DHT22;978;48.314;11.562;2023-08-08T01:08:47;23.90;74.40
1956;DHT22;978;48.314;11.562;2023-08-08T01:11:17;23.90;74.30
1956;DHT22;978;48.314;11.562;2023-08-08T01:13:45;23.80;74.20
1956;DHT22;978;48.314;11.562;2023-08-08T01:16:17;24.50;74.70
1956;DHT22;978;48.314;11.562;2023-08-08T01:18:49;22.70;73.70
1956;DHT22;978;48.314;11.562;2023-08-08T01:21:16;23.90;74.40
1956;DHT22;978;48.314;11.562;2023-08-08T01:23:46;23.90;74.40
1956;DHT22;978;48.314;11.562;2023-08-08T01:26:21;23.90;74.50
1956;DHT22;978;48.314;11.562;2023-08-08T01:28:49;23.90;74.50
1956;DHT22;978;48.314;11.562;2023-08-08T01:31:19;23.90;74.60
1956;DHT22;978;48.314;11.562;2023-08-08T01:33:46;23.90;74.50
1956;DHT22;978;48.314;11.562;2023-08-08T01:36:18;23.90;74.50
1956;DHT22;978;48.314;11.562;2023-08-08T01:38:49;23.80;74.40
1956;DHT22;978;48.314;11.562;2023-08-08T01:41:24;23.90;74.40
1956;DHT22;978;48.314;11.562;2023-08-08T01:43:52;23.90;74.50
1956;DHT22;978;48.314;11.562;2023-08-08T01:46:19;23.80;74.50
1956;DHT22;978;48.314;11.562;2023-08-08T01:48:45;23.90;74.50
1956;DHT22;978;48.314;11.562;2023-08-08T01:51:15;23.80;74.50
1956;DHT22;978;48.314;11.562;2023-08-08T01:53:44;23.90;74.60
1956;DHT22;978;48.314;11.562;2023-08-08T01:56:11;23.90;74.70
1956;DHT22;978;48.314;11.562;2023-08-08T01:58:39;23.90;74.70
1956;DHT22;978;48.314;11.562;2023-08-08T02:01:05;23.90;74.80
1956;DHT22;978;48.314;11.562;2023-08-08T02:03:32;23.90;74.60
1956;DHT22;978;48.314;11.562;2023-08-08T02:06:00;23.80;74.50
1956;DHT22;978;48.314;11.562;2023-08-08T02:08:27;23.90;74.60
1956;DHT22;978;48.314;11.562;2023-08-08T02:10:54;23.90;74.60
1956;DHT22;978;48.314;11.562;2023-08-08T02:13:20;23.80;74.60
1956;DHT22;978;48.314;11.562;2023-08-08T02:15:48;23.80;74.60
1956;DHT22;978;48.314;11.562;2023-08-08T02:18:15;23.90;74.80
1956;DHT22;978;48.314;11.562;2023-08-08T02:20:42;24.00;74.80
1956;DHT22;978;48.314;11.562;2023-08-08T02:23:09;23.90;74.80
1956;DHT22;978;48.314;11.562;2023-08-08T02:25:35;23.80;74.80
1956;DHT22;978;48.314;11.562;2023-08-08T02:28:02;23.90;74.80
1956;DHT22;978;48.314;11.562;2023-08-08T02:30:29;23.80;74.80
1956;DHT22;978;48.314;11.562;2023-08-08T02:32:57;23.90;74.70
1956;DHT22;978;48.314;11.562;2023-08-08T02:35:24;23.90;74.70
1956;DHT22;978;48.314;11.562;2023-08-08T02:37:51;23.90;74.80
1956;DHT22;978;48.314;11.562;2023-08-08T02:40:17;23.90;74.80
1956;DHT22;978;48.314;11.562;2023-08-08T02:42:45;23.90;74.80
1956;DHT22;978;48.314;11.562;2023-08-08T02:45:12;23.80;74.80
1956;DHT22;978;48.314;11.562;2023-08-08T02:47:39;23.90;74.90
1956;DHT22;978;48.314;11.562;2023-08-08T02:50:08;23.80;74.90
1956;DHT22;978;48.314;11.562;2023-08-08T02:52:34;23.90;75.00
1956;DHT22;978;48.314;11.562;2023-08-08T02:55:03;23.90;75.00
1956;DHT22;978;48.314;11.562;2023-08-08T02:57:30;23.80;74.90
1956;DHT22;978;48.314;11.562;2023-08-08T02:59:57;23.90;74.90
1956;DHT22;978;48.314;11.562;2023-08-08T03:02:24;23.90;74.80
1956;DHT22;978;48.314;11.562;2023-08-08T03:04:51;23.80;74.80
1956;DHT22;978;48.314;11.562;2023-08-08T03:07:19;23.90;74.90
1956;DHT22;978;48.314;11.562;2023-08-08T03:09:47;23.80;74.90
1956;DHT22;978;48.314;11.562;2023-08-08T03:12:14;23.80;74.90
1956;DHT22;978;48.314;11.562;2023-08-08T03:14:42;23.90;75.00
1956;DHT22;978;48.314;11.562;2023-08-08T03:17:08;23.90;75.00
1956;DHT22;978;48.314;11.562;2023-08-08T03:19:35;23.90;75.10
1956;DHT22;978;48.314;11.562;2023-08-08T03:22:02;23.80;75.10
1956;DHT22;978;48.314;11.562;2023-08-08T03:24:31;23.80;75.00
1956;DHT22;978;48.314;11.562;2023-08-08T03:26:57;23.80;74.90
1956;DHT22;978;48.314;11.562;2023-08-08T03:29:25;23.90;74.90
1956;DHT22;978;48.314;11.562;2023-08-08T03:31:52;23.90;75.00
1956;DHT22;978;48.314;11.562;2023-08-08T03:34:19;23.90;75.00
1956;DHT22;978;48.314;11.562;2023-08-08T03:36:45;23.90;75.10
1956;DHT22;978;48.314;11.562;2023-08-08T03:39:12;23.90;75.10
1956;DHT22;978;48.314;11.562;2023-08-08T03:41:45;23.90;75.10
1956;DHT22;978;48.314;11.562;2023-08-08T03:44:12;23.90;75.20
1956;DHT22;978;48.314;11.562;2023-08-08T03:46:39;23.90;75.20
1956;DHT22;978;48.314;11.562;2023-08-08T03:49:05;23.90;75.20
1956;DHT22;978;48.314;11.562;2023-08-08T03:51:34;23.90;75.10
1956;DHT22;978;48.314;11.562;2023-08-08T03:54:01;23.90;75.00
1956;DHT22;978;48.314;11.562;2023-08-08T03:56:28;23.90;75.00
1956;DHT22;978;48.314;11.562;2023-08-08T03:58:57;23.80;75.00
1956;DHT22;978;48.314;11.562;2023-08-08T04:01:24;23.80;75.00
1956;DHT22;978;48.314;11.562;2023-08-08T04:03:51;23.80;75.10
1956;DHT22;978;48.314;11.562;2023-08-08T04:06:17;23.90;75.10
1956;DHT22;978;48.314;11.562;2023-08-08T04:08:44;23.90;75.00
1956;DHT22;978;48.314;11.562;2023-08-08T04:11:11;23.80;75.00
1956;DHT22;978;48.314;11.562;2023-08-08T04:13:39;23.80;75.10
1956;DHT22;978;48.314;11.562;2023-08-08T04:16:07;23.90;75.20
1956;DHT22;978;48.314;11.562;2023-08-08T04:18:34;23.80;75.10
1956;DHT22;978;48.314;11.562;2023-08-08T04:21:03;23.90;75.10
1956;DHT22;978;48.314;11.562;2023-08-08T04:23:30;23.90;75.00
1956;DHT22;978;48.314;11.562;2023-08-08T04:25:56;24.00;75.00
1956;DHT22;978;48.314;11.562;2023-08-08T04:28:23;23.80;74.80
1956;DHT22;978;48.314;11.562;2023-08-08T04:30:50;23.90;74.90
1956;DHT22;978;48.314;11.562;2023-08-08T04:33:18;23.80;74.90
1956;DHT22;978;48.314;11.562;2023-08-08T04:35:46;23.80;74.90
1956;DHT22;978;48.314;11.562;2023-08-08T04:38:14;23.90;74.90
1956;DHT22;978;48.314;11.562;2023-08-08T04:40:41;23.90;74.90
1956;DHT22;978;48.314;11.562;2023-08-08T04:43:08;23.80;74.80
1956;DHT22;978;48.314;11.562;2023-08-08T04:45:34;23.90;74.80
1956;DHT22;978;48.314;11.562;2023-08-08T04:48:01;23.90;74.80
1956;DHT22;978;48.314;11.562;2023-08-08T04:50:29;23.90;74.80
1956;DHT22;978;48.314;11.562;2023-08-08T04:52:56;23.90;74.70
1956;DHT22;978;48.314;11.562;2023-08-08T04:55:24;23.80;74.60
1956;DHT22;978;48.314;11.562;2023-08-08T04:57:58;23.90;74.70
1956;DHT22;978;48.314;11.562;2023-08-08T05:00:26;23.80;74.60
1956;DHT22;978;48.314;11.562;2023-08-08T05:02:53;24.00;74.70
1956;DHT22;978;48.314;11.562;2023-08-08T05:05:19;24.00;74.70
1956;DHT22;978;48.314;11.562;2023-08-08T05:07:50;23.80;74.60
1956;DHT22;978;48.314;11.562;2023-08-08T05:10:18;23.80;74.50
1956;DHT22;978;48.314;11.562;2023-08-08T05:12:45;23.80;74.50
1956;DHT22;978;48.314;11.562;2023-08-08T05:15:12;23.90;74.60
1956;DHT22;978;48.314;11.562;2023-08-08T05:17:41;23.80;74.50
1956;DHT22;978;48.314;11.562;2023-08-08T05:20:08;23.80;74.60
1956;DHT22;978;48.314;11.562;2023-08-08T05:22:36;23.80;74.70
1956;DHT22;978;48.314;11.562;2023-08-08T05:25:05;23.90;74.70
1956;DHT22;978;48.314;11.562;2023-08-08T05:27:32;23.80;74.70
1956;DHT22;978;48.314;11.562;2023-08-08T05:29:58;23.90;74.80
1956;DHT22;978;48.314;11.562;2023-08-08T05:32:26;23.80;74.70
1956;DHT22;978;48.314;11.562;2023-08-08T05:34:53;23.80;74.70
1956;DHT22;978;48.314;11.562;2023-08-08T05:37:20;23.90;74.80
1956;DHT22;978;48.314;11.562;2023-08-08T05:39:47;23.80;74.70
1956;DHT22;978;48.314;11.562;2023-08-08T05:42:15;23.80;74.70
1956;DHT22;978;48.314;11.562;2023-08-08T05:44:42;23.80;74.80
1956;DHT22;978;48.314;11.562;2023-08-08T05:47:09;23.80;74.70
1956;DHT22;978;48.314;11.562;2023-08-08T05:49:35;23.80;74.80
1956;DHT22;978;48.314;11.562;2023-08-08T05:52:02;23.80;74.70
1956;DHT22;978;48.314;11.562;2023-08-08T05:54:29;23.80;74.80
1956;DHT22;978;48.314;11.562;2023-08-08T05:56:56;23.80;74.80
1956;DHT22;978;48.314;11.562;2023-08-08T05:59:24;23.90;74.80
1956;DHT22;978;48.314;11.562;2023-08-08T06:01:51;23.80;74.70
1956;DHT22;978;48.314;11.562;2023-08-08T06:04:18;23.80;74.70
1956;DHT22;978;48.314;11.562;2023-08-08T06:06:44;23.80;74.80
1956;DHT22;978;48.314;11.562;2023-08-08T06:09:14;23.80;74.70
1956;DHT22;978;48.314;11.562;2023-08-08T06:11:41;23.80;74.70
1956;DHT22;978;48.314;11.562;2023-08-08T06:14:08;23.80;74.70
1956;DHT22;978;48.314;11.562;2023-08-08T06:16:36;23.80;74.70
1956;DHT22;978;48.314;11.562;2023-08-08T06:19:02;23.80;74.70
1956;DHT22;978;48.314;11.562;2023-08-08T06:21:29;23.80;74.70
1956;DHT22;978;48.314;11.562;2023-08-08T06:23:56;23.90;74.80
1956;DHT22;978;48.314;11.562;2023-08-08T06:26:23;23.80;74.70
1956;DHT22;978;48.314;11.562;2023-08-08T06:28:50;23.80;74.70
1956;DHT22;978;48.314;11.562;2023-08-08T06:31:18;23.80;74.70
1956;DHT22;978;48.314;11.562;2023-08-08T06:33:46;23.80;75.30
1956;DHT22;978;48.314;11.562;2023-08-08T06:36:13;23.80;74.70
1956;DHT22;978;48.314;11.562;2023-08-08T06:38:41;23.80;74.70
1956;DHT22;978;48.314;11.562;2023-08-08T06:41:08;23.80;74.70
1956;DHT22;978;48.314;11.562;2023-08-08T06:43:35;23.80;74.80
1956;DHT22;978;48.314;11.562;2023-08-08T06:46:01;23.80;74.80
1956;DHT22;978;48.314;11.562;2023-08-08T06:48:28;23.80;74.80
1956;DHT22;978;48.314;11.562;2023-08-08T06:50:57;23.80;74.80
1956;DHT22;978;48.314;11.562;2023-08-08T06:53:23;23.80;74.80
1956;DHT22;978;48.314;11.562;2023-08-08T06:55:54;23.80;74.80
1956;DHT22;978;48.314;11.562;2023-08-08T06:58:20;23.80;74.80
1956;DHT22;978;48.314;11.562;2023-08-08T07:00:47;23.80;74.80
1956;DHT22;978;48.314;11.562;2023-08-08T07:03:14;23.80;74.90
1956;DHT22;978;48.314;11.562;2023-08-08T07:05:40;23.80;74.90
1956;DHT22;978;48.314;11.562;2023-08-08T07:08:10;23.80;74.80
1956;DHT22;978;48.314;11.562;2023-08-08T07:10:37;23.80;74.90
1956;DHT22;978;48.314;11.562;2023-08-08T07:13:05;23.80;74.90
1956;DHT22;978;48.314;11.562;2023-08-08T07:15:32;23.90;75.00
1956;DHT22;978;48.314;11.562;2023-08-08T07:18:00;24.00;74.80
1956;DHT22;978;48.314;11.562;2023-08-08T07:20:26;23.80;73.70
1956;DHT22;978;48.314;11.562;2023-08-08T07:22:54;23.80;73.90
1956;DHT22;978;48.314;11.562;2023-08-08T07:25:25;23.80;74.10
1956;DHT22;978;48.314;11.562;2023-08-08T07:27:51;23.80;74.10
1956;DHT22;978;48.314;11.562;2023-08-08T07:30:18;23.80;74.20
1956;DHT22;978;48.314;11.562;2023-08-08T07:32:46;23.80;74.30
1956;DHT22;978;48.314;11.562;2023-08-08T07:35:14;23.80;74.30
1956;DHT22;978;48.314;11.562;2023-08-08T07:37:41;23.80;74.40
1956;DHT22;978;48.314;11.562;2023-08-08T07:40:17;23.80;74.50
1956;DHT22;978;48.314;11.562;2023-08-08T07:42:47;23.80;74.50
1956;DHT22;978;48.314;11.562;2023-08-08T07:45:16;23.80;74.60
1956;DHT22;978;48.314;11.562;2023-08-08T07:47:44;23.80;74.60
1956;DHT22;978;48.314;11.562;2023-08-08T07:50:11;23.80;74.60
1956;DHT22;978;48.314;11.562;2023-08-08T07:52:40;23.80;74.60
1956;DHT22;978;48.314;11.562;2023-08-08T07:55:08;23.80;74.70
1956;DHT22;978;48.314;11.562;2023-08-08T07:57:34;23.80;74.70
1956;DHT22;978;48.314;11.562;2023-08-08T08:00:05;23.80;74.80
1956;DHT22;978;48.314;11.562;2023-08-08T08:02:38;23.80;74.90
1956;DHT22;978;48.314;11.562;2023-08-08T08:05:05;23.80;74.90
1956;DHT22;978;48.314;11.562;2023-08-08T08:07:33;23.80;74.90
1956;DHT22;978;48.314;11.562;2023-08-08T08:10:01;23.80;74.90
1956;DHT22;978;48.314;11.562;2023-08-08T08:12:29;23.80;74.90
1956;DHT22;978;48.314;11.562;2023-08-08T08:14:56;23.80;74.90
1956;DHT22;978;48.314;11.562;2023-08-08T08:17:25;23.90;75.00
1956;DHT22;978;48.314;11.562;2023-08-08T08:19:53;23.80;74.90
1956;DHT22;978;48.314;11.562;2023-08-08T08:22:20;23.80;74.90
1956;DHT22;978;48.314;11.562;2023-08-08T08:24:47;23.80;74.90
1956;DHT22;978;48.314;11.562;2023-08-08T08:27:13;23.80;74.80
1956;DHT22;978;48.314;11.562;2023-08-08T08:29:40;23.80;74.90
1956;DHT22;978;48.314;11.562;2023-08-08T08:32:07;23.90;74.90
1956;DHT22;978;48.314;11.562;2023-08-08T08:34:35;23.80;74.80
1956;DHT22;978;48.314;11.562;2023-08-08T08:37:03;23.80;74.80
1956;DHT22;978;48.314;11.562;2023-08-08T08:39:29;23.80;74.80
1956;DHT22;978;48.314;11.562;2023-08-08T08:41:59;23.80;74.80
1956;DHT22;978;48.314;11.562;2023-08-08T08:44:28;23.80;74.80
1956;DHT22;978;48.314;11.562;2023-08-08T08:46:58;23.80;74.80
1956;DHT22;978;48.314;11.562;2023-08-08T08:49:26;23.80;74.80
1956;DHT22;978;48.314;11.562;2023-08-08T08:51:57;23.80;74.80
1956;DHT22;978;48.314;11.562;2023-08-08T08:54:27;23.80;74.90
1956;DHT22;978;48.314;11.562;2023-08-08T08:56:55;23.80;75.40
1956;DHT22;978;48.314;11.562;2023-08-08T08:59:22;23.80;74.80
1956;DHT22;978;48.314;11.562;2023-08-08T09:01:49;23.80;74.80
1956;DHT22;978;48.314;11.562;2023-08-08T09:04:19;23.80;74.80
1956;DHT22;978;48.314;11.562;2023-08-08T09:06:47;23.80;74.80
1956;DHT22;978;48.314;11.562;2023-08-08T09:09:15;23.80;74.90
1956;DHT22;978;48.314;11.562;2023-08-08T09:11:43;22.60;74.20
1956;DHT22;978;48.314;11.562;2023-08-08T09:14:18;23.80;74.80
1956;DHT22;978;48.314;11.562;2023-08-08T09:16:45;23.80;74.80
1956;DHT22;978;48.314;11.562;2023-08-08T09:19:12;23.90;74.90
1956;DHT22;978;48.314;11.562;2023-08-08T09:21:40;23.80;74.80
1956;DHT22;978;48.314;11.562;2023-08-08T09:24:07;23.80;74.80
1956;DHT22;978;48.314;11.562;2023-08-08T09:26:35;23.80;74.80
1956;DHT22;978;48.314;11.562;2023-08-08T09:29:03;23.80;74.80
1956;DHT22;978;48.314;11.562;2023-08-08T09:31:30;23.80;74.80
1956;DHT22;978;48.314;11.562;2023-08-08T09:33:58;23.80;74.80
1956;DHT22;978;48.314;11.562;2023-08-08T09:36:24;23.80;74.80
1956;DHT22;978;48.314;11.562;2023-08-08T09:38:52;23.80;74.80
1956;DHT22;978;48.314;11.562;2023-08-08T09:41:19;23.80;74.80
1956;DHT22;978;48.314;11.562;2023-08-08T09:43:53;23.80;74.80
1956;DHT22;978;48.314;11.562;2023-08-08T09:46:22;23.80;74.80
1956;DHT22;978;48.314;11.562;2023-08-08T09:48:49;23.80;74.70
1956;DHT22;978;48.314;11.562;2023-08-08T09:51:17;23.80;74.80
1956;DHT22;978;48.314;11.562;2023-08-08T09:53:44;23.80;74.70
1956;DHT22;978;48.314;11.562;2023-08-08T09:56:14;23.80;74.60
1956;DHT22;978;48.314;11.562;2023-08-08T09:58:42;23.80;74.70
1956;DHT22;978;48.314;11.562;2023-08-08T10:01:11;23.80;74.60
1956;DHT22;978;48.314;11.562;2023-08-08T10:03:38;23.80;74.60
1956;DHT22;978;48.314;11.562;2023-08-08T10:06:07;23.80;74.60
1956;DHT22;978;48.314;11.562;2023-08-08T10:08:34;23.80;74.60
1956;DHT22;978;48.314;11.562;2023-08-08T10:11:02;23.80;74.60
1956;DHT22;978;48.314;11.562;2023-08-08T10:13:29;23.80;74.60
1956;DHT22;978;48.314;11.562;2023-08-08T10:15:55;23.80;74.60
1956;DHT22;978;48.314;11.562;2023-08-08T10:18:24;23.80;74.50
1956;DHT22;978;48.314;11.562;2023-08-08T10:20:51;23.80;74.50
1956;DHT22;978;48.314;11.562;2023-08-08T10:23:19;23.80;74.50
1956;DHT22;978;48.314;11.562;2023-08-08T10:25:47;23.80;74.50
1956;DHT22;978;48.314;11.562;2023-08-08T10:28:16;23.80;74.50
1956;DHT22;978;48.314;11.562;2023-08-08T10:30:44;23.80;74.40
1956;DHT22;978;48.314;11.562;2023-08-08T10:33:19;23.80;74.50
1956;DHT22;978;48.314;11.562;2023-08-08T10:36:00;23.80;74.40
1956;DHT22;978;48.314;11.562;2023-08-08T10:38:39;23.80;74.40
1956;DHT22;978;48.314;11.562;2023-08-08T10:41:09;23.90;74.50
1956;DHT22;978;48.314;11.562;2023-08-08T10:43:36;23.80;73.80
1956;DHT22;978;48.314;11.562;2023-08-08T10:46:04;23.80;72.50
1956;DHT22;978;48.314;11.562;2023-08-08T10:48:31;23.80;71.80
1956;DHT22;978;48.314;11.562;2023-08-08T10:50:59;23.80;71.10
1956;DHT22;978;48.314;11.562;2023-08-08T10:53:27;23.80;70.50
1956;DHT22;978;48.314;11.562;2023-08-08T10:55:58;23.80;70.30
1956;DHT22;978;48.314;11.562;2023-08-08T10:58:35;23.80;70.20
1956;DHT22;978;48.314;11.562;2023-08-08T11:01:02;23.80;70.70
1956;DHT22;978;48.314;11.562;2023-08-08T11:03:34;23.80;71.00
1956;DHT22;978;48.314;11.562;2023-08-08T11:06:02;23.80;71.20
1956;DHT22;978;48.314;11.562;2023-08-08T11:08:30;23.80;71.40
1956;DHT22;978;48.314;11.562;2023-08-08T11:10:58;23.80;71.70
1956;DHT22;978;48.314;11.562;2023-08-08T11:13:25;23.80;71.90
1956;DHT22;978;48.314;11.562;2023-08-08T11:15:52;23.80;72.00
1956;DHT22;978;48.314;11.562;2023-08-08T11:18:19;23.80;72.30
1956;DHT22;978;48.314;11.562;2023-08-08T11:20:47;23.80;72.40
1956;DHT22;978;48.314;11.562;2023-08-08T11:23:15;23.80;72.60
1956;DHT22;978;48.314;11.562;2023-08-08T11:25:44;23.80;72.80
1956;DHT22;978;48.314;11.562;2023-08-08T11:28:12;23.80;72.90
1956;DHT22;978;48.314;11.562;2023-08-08T11:30:41;23.80;73.00
1956;DHT22;978;48.314;11.562;2023-08-08T11:33:10;23.80;73.10
1956;DHT22;978;48.314;11.562;2023-08-08T11:35:43;23.80;73.20
1956;DHT22;978;48.314;11.562;2023-08-08T11:38:11;23.80;73.30
1956;DHT22;978;48.314;11.562;2023-08-08T11:40:42;23.80;73.30
1956;DHT22;978;48.314;11.562;2023-08-08T11:43:11;23.80;73.60
1956;DHT22;978;48.314;11.562;2023-08-08T11:45:39;23.80;73.70
1956;DHT22;978;48.314;11.562;2023-08-08T11:48:08;23.80;73.90
1956;DHT22;978;48.314;11.562;2023-08-08T11:50:37;23.80;73.90
1956;DHT22;978;48.314;11.562;2023-08-08T11:53:04;23.80;74.00
1956;DHT22;978;48.314;11.562;2023-08-08T11:55:32;23.80;74.00
1956;DHT22;978;48.314;11.562;2023-08-08T11:58:00;23.80;74.00
1956;DHT22;978;48.314;11.562;2023-08-08T12:00:27;23.80;74.00
1956;DHT22;978;48.314;11.562;2023-08-08T12:02:55;23.80;74.00
1956;DHT22;978;48.314;11.562;2023-08-08T12:05:22;23.80;74.00
1956;DHT22;978;48.314;11.562;2023-08-08T12:07:49;23.80;74.00
1956;DHT22;978;48.314;11.562;2023-08-08T12:10:18;23.80;74.10
1956;DHT22;978;48.314;11.562;2023-08-08T12:12:45;23.80;74.10
1956;DHT22;978;48.314;11.562;2023-08-08T12:15:14;23.80;74.10
1956;DHT22;978;48.314;11.562;2023-08-08T12:17:42;23.80;74.10
1956;DHT22;978;48.314;11.562;2023-08-08T12:20:10;23.80;74.00
1956;DHT22;978;48.314;11.562;2023-08-08T12:22:38;23.80;74.20
1956;DHT22;978;48.314;11.562;2023-08-08T12:25:05;23.80;74.10
1956;DHT22;978;48.314;11.562;2023-08-08T12:27:34;23.80;74.10
1956;DHT22;978;48.314;11.562;2023-08-08T12:30:00;23.80;74.20
1956;DHT22;978;48.314;11.562;2023-08-08T12:32:28;23.80;74.20
1956;DHT22;978;48.314;11.562;2023-08-08T12:34:57;23.80;74.30
1956;DHT22;978;48.314;11.562;2023-08-08T12:37:23;23.80;74.30
1956;DHT22;978;48.314;11.562;2023-08-08T12:39:51;23.80;74.10
1956;DHT22;978;48.314;11.562;2023-08-08T12:42:18;23.80;74.00
1956;DHT22;978;48.314;11.562;2023-08-08T12:44:45;23.80;74.10
1956;DHT22;978;48.314;11.562;2023-08-08T12:47:12;23.80;74.20
1956;DHT22;978;48.314;11.562;2023-08-08T12:49:40;23.80;73.90
1956;DHT22;978;48.314;11.562;2023-08-08T12:52:07;23.80;73.70
1956;DHT22;978;48.314;11.562;2023-08-08T12:54:34;23.80;73.50
1956;DHT22;978;48.314;11.562;2023-08-08T12:57:01;23.80;73.10
1956;DHT22;978;48.314;11.562;2023-08-08T12:59:28;23.80;72.70
1956;DHT22;978;48.314;11.562;2023-08-08T13:01:55;24.00;72.90
1956;DHT22;978;48.314;11.562;2023-08-08T13:04:22;23.80;72.90
1956;DHT22;978;48.314;11.562;2023-08-08T13:06:50;23.80;72.70
1956;DHT22;978;48.314;11.562;2023-08-08T13:09:16;23.80;72.50
1956;DHT22;978;48.314;11.562;2023-08-08T13:11:43;23.80;72.30
1956;DHT22;978;48.314;11.562;2023-08-08T13:14:10;23.80;72.30
1956;DHT22;978;48.314;11.562;2023-08-08T13:16:38;23.80;72.70
1956;DHT22;978;48.314;11.562;2023-08-08T13:19:10;23.80;72.90
1956;DHT22;978;48.314;11.562;2023-08-08T13:21:41;23.80;73.10
1956;DHT22;978;48.314;11.562;2023-08-08T13:24:09;23.80;73.10
1956;DHT22;978;48.314;11.562;2023-08-08T13:26:38;23.80;73.10
1956;DHT22;978;48.314;11.562;2023-08-08T13:29:05;23.80;73.00
1956;DHT22;978;48.314;11.562;2023-08-08T13:31:32;23.80;73.10
1956;DHT22;978;48.314;11.562;2023-08-08T13:34:00;23.80;73.10
1956;DHT22;978;48.314;11.562;2023-08-08T13:36:26;23.80;73.20
1956;DHT22;978;48.314;11.562;2023-08-08T13:38:53;23.80;73.20
1956;DHT22;978;48.314;11.562;2023-08-08T13:41:25;23.80;73.10
1956;DHT22;978;48.314;11.562;2023-08-08T13:43:55;23.80;73.10
1956;DHT22;978;48.314;11.562;2023-08-08T13:46:24;23.90;73.10
1956;DHT22;978;48.314;11.562;2023-08-08T13:48:51;23.80;73.10
1956;DHT22;978;48.314;11.562;2023-08-08T13:51:17;23.80;73.10
1956;DHT22;978;48.314;11.562;2023-08-08T13:53:44;25.10;73.90
1956;DHT22;978;48.314;11.562;2023-08-08T13:56:11;23.80;73.10
1956;DHT22;978;48.314;11.562;2023-08-08T13:58:44;23.80;73.20
1956;DHT22;978;48.314;11.562;2023-08-08T14:01:10;23.80;73.20
1956;DHT22;978;48.314;11.562;2023-08-08T14:03:37;23.80;73.10
1956;DHT22;978;48.314;11.562;2023-08-08T14:06:04;23.80;73.20
1956;DHT22;978;48.314;11.562;2023-08-08T14:08:31;23.80;73.10
1956;DHT22;978;48.314;11.562;2023-08-08T14:10:59;23.80;73.20
1956;DHT22;978;48.314;11.562;2023-08-08T14:13:28;23.80;73.20
1956;DHT22;978;48.314;11.562;2023-08-08T14:15:57;23.80;73.20
1956;DHT22;978;48.314;11.562;2023-08-08T14:18:25;23.80;73.10
1956;DHT22;978;48.314;11.562;2023-08-08T14:20:53;23.80;73.10
1956;DHT22;978;48.314;11.562;2023-08-08T14:23:19;23.80;73.10
1956;DHT22;978;48.314;11.562;2023-08-08T14:25:47;23.80;73.10
1956;DHT22;978;48.314;11.562;2023-08-08T14:28:14;23.80;73.10
1956;DHT22;978;48.314;11.562;2023-08-08T14:30:40;23.80;73.20
1956;DHT22;978;48.314;11.562;2023-08-08T14:33:09;23.80;73.20
1956;DHT22;978;48.314;11.562;2023-08-08T14:35:35;23.80;73.20
1956;DHT22;978;48.314;11.562;2023-08-08T14:38:02;24.10;73.30
1956;DHT22;978;48.314;11.562;2023-08-08T14:40:29;23.80;73.10
1956;DHT22;978;48.314;11.562;2023-08-08T14:42:57;23.80;73.10
1956;DHT22;978;48.314;11.562;2023-08-08T14:45:24;23.80;73.10
1956;DHT22;978;48.314;11.562;2023-08-08T14:47:51;23.80;73.10
1956;DHT22;978;48.314;11.562;2023-08-08T14:50:20;23.80;73.10
1956;DHT22;978;48.314;11.562;2023-08-08T14:52:47;23.80;73.20
1956;DHT22;978;48.314;11.562;2023-08-08T14:55:15;23.80;73.10
1956;DHT22;978;48.314;11.562;2023-08-08T14:57:41;23.80;73.20
1956;DHT22;978;48.314;11.562;2023-08-08T15:00:10;23.80;73.10
1956;DHT22;978;48.314;11.562;2023-08-08T15:02:38;23.80;72.30
1956;DHT22;978;48.314;11.562;2023-08-08T15:05:05;23.80;72.40
1956;DHT22;978;48.314;11.562;2023-08-08T15:07:35;23.80;72.70
1956;DHT22;978;48.314;11.562;2023-08-08T15:10:01;23.80;72.80
1956;DHT22;978;48.314;11.562;2023-08-08T15:12:32;23.80;73.00
1956;DHT22;978;48.314;11.562;2023-08-08T15:14:59;23.80;73.20
1956;DHT22;978;48.314;11.562;2023-08-08T15:17:26;23.80;73.20
1956;DHT22;978;48.314;11.562;2023-08-08T15:19:53;23.80;73.10
1956;DHT22;978;48.314;11.562;2023-08-08T15:22:19;23.80;73.00
1956;DHT22;978;48.314;11.562;2023-08-08T15:24:48;23.80;72.90
1956;DHT22;978;48.314;11.562;2023-08-08T15:27:15;23.80;72.90
1956;DHT22;978;48.314;11.562;2023-08-08T15:29:45;23.80;73.00
1956;DHT22;978;48.314;11.562;2023-08-08T15:32:12;23.80;73.00
1956;DHT22;978;48.314;11.562;2023-08-08T15:34:40;23.80;73.20
1956;DHT22;978;48.314;11.562;2023-08-08T15:37:15;23.80;73.10
1956;DHT22;978;48.314;11.562;2023-08-08T15:39:42;23.80;72.40
1956;DHT22;978;48.314;11.562;2023-08-08T15:42:11;23.80;72.00
1956;DHT22;978;48.314;11.562;2023-08-08T15:44:38;23.80;71.80
1956;DHT22;978;48.314;11.562;2023-08-08T15:47:05;23.80;71.70
1956;DHT22;978;48.314;11.562;2023-08-08T15:49:35;23.80;71.20
1956;DHT22;978;48.314;11.562;2023-08-08T15:52:03;23.80;71.00
1956;DHT22;978;48.314;11.562;2023-08-08T15:54:30;23.80;71.30
1956;DHT22;978;48.314;11.562;2023-08-08T15:56:58;23.80;71.20
1956;DHT22;978;48.314;11.562;2023-08-08T15:59:30;23.80;71.20
1956;DHT22;978;48.314;11.562;2023-08-08T16:01:58;23.80;70.60
1956;DHT22;978;48.314;11.562;2023-08-08T16:04:25;23.80;70.20
1956;DHT22;978;48.314;11.562;2023-08-08T16:06:52;23.80;70.60